Terminal Aerodrome Forecast
Issued by NWS Des Moines, IA

Home | Current Version | Previous Version | Text Only | Print | Product List | Glossary On
Versions: 1 2 3 4 5 6 7 8 9 10 11 12 13 14 15 16 17 18
000
FTUS43 KDMX 230530
TAFALO
TAF
KALO 230530Z 2306/2406 34008KT P6SM VCTS BKN024CB OVC035
     FM230800 35008KT P6SM SCT035
     FM231400 31010G16KT P6SM SCT160
     FM231900 32014G24KT P6SM SCT200
     FM240000 31010KT P6SM SKC=

USA.gov is the U.S. government's official web portal to all federal, state and local government web resources and services.